sensor_id;sensor_type;location;lat;lon;timestamp;temperature;humidity
36450;DHT22;22475;51.390;7.180;2023-02-28T00:00:17;9.30;79.80
36450;DHT22;22475;51.390;7.180;2023-02-28T00:02:44;9.30;79.80
36450;DHT22;22475;51.390;7.180;2023-02-28T00:05:15;9.30;79.90
36450;DHT22;22475;51.390;7.180;2023-02-28T00:07:42;9.20;79.90
36450;DHT22;22475;51.390;7.180;2023-02-28T00:10:11;9.30;80.20
36450;DHT22;22475;51.390;7.180;2023-02-28T00:12:38;9.30;80.80
36450;DHT22;22475;51.390;7.180;2023-02-28T00:15:06;9.30;80.20
36450;DHT22;22475;51.390;7.180;2023-02-28T00:17:33;9.30;80.40
36450;DHT22;22475;51.390;7.180;2023-02-28T00:20:00;9.30;80.60
36450;DHT22;22475;51.390;7.180;2023-02-28T00:22:39;9.30;80.70
36450;DHT22;22475;51.390;7.180;2023-02-28T00:25:07;9.30;80.80
36450;DHT22;22475;51.390;7.180;2023-02-28T00:27:35;9.30;81.00
36450;DHT22;22475;51.390;7.180;2023-02-28T00:30:03;9.40;81.90
36450;DHT22;22475;51.390;7.180;2023-02-28T00:32:30;9.40;81.00
36450;DHT22;22475;51.390;7.180;2023-02-28T00:34:57;9.30;80.90
36450;DHT22;22475;51.390;7.180;2023-02-28T00:37:24;9.30;80.90
36450;DHT22;22475;51.390;7.180;2023-02-28T00:39:52;9.30;80.90
36450;DHT22;22475;51.390;7.180;2023-02-28T00:42:18;9.30;81.00
36450;DHT22;22475;51.390;7.180;2023-02-28T00:44:45;9.40;80.90
36450;DHT22;22475;51.390;7.180;2023-02-28T00:47:12;9.30;80.80
36450;DHT22;22475;51.390;7.180;2023-02-28T00:49:39;9.30;80.70
36450;DHT22;22475;51.390;7.180;2023-02-28T00:52:05;9.30;80.60
36450;DHT22;22475;51.390;7.180;2023-02-28T00:54:32;9.30;80.60
36450;DHT22;22475;51.390;7.180;2023-02-28T00:57:00;9.30;80.60
36450;DHT22;22475;51.390;7.180;2023-02-28T00:59:27;9.30;80.50
36450;DHT22;22475;51.390;7.180;2023-02-28T01:01:54;9.30;80.50
36450;DHT22;22475;51.390;7.180;2023-02-28T01:04:20;9.30;80.40
36450;DHT22;22475;51.390;7.180;2023-02-28T01:06:47;9.30;80.40
36450;DHT22;22475;51.390;7.180;2023-02-28T01:09:14;9.30;80.30
36450;DHT22;22475;51.390;7.180;2023-02-28T01:11:41;9.30;81.10
36450;DHT22;22475;51.390;7.180;2023-02-28T01:14:12;9.30;80.30
36450;DHT22;22475;51.390;7.180;2023-02-28T01:16:39;9.20;80.30
36450;DHT22;22475;51.390;7.180;2023-02-28T01:19:06;9.20;80.30
36450;DHT22;22475;51.390;7.180;2023-02-28T01:21:33;9.20;80.30
36450;DHT22;22475;51.390;7.180;2023-02-28T01:24:01;9.20;80.20
36450;DHT22;22475;51.390;7.180;2023-02-28T01:26:27;9.20;80.20
36450;DHT22;22475;51.390;7.180;2023-02-28T01:28:55;9.30;80.20
36450;DHT22;22475;51.390;7.180;2023-02-28T01:31:23;9.20;80.20
36450;DHT22;22475;51.390;7.180;2023-02-28T01:33:51;9.20;80.10
36450;DHT22;22475;51.390;7.180;2023-02-28T01:36:19;9.20;80.10
36450;DHT22;22475;51.390;7.180;2023-02-28T01:38:47;9.20;80.10
36450;DHT22;22475;51.390;7.180;2023-02-28T01:41:16;9.20;80.10
36450;DHT22;22475;51.390;7.180;2023-02-28T01:44:02;9.20;80.00
36450;DHT22;22475;51.390;7.180;2023-02-28T01:46:34;9.20;80.00
36450;DHT22;22475;51.390;7.180;2023-02-28T01:49:05;9.20;80.00
36450;DHT22;22475;51.390;7.180;2023-02-28T01:51:39;9.20;79.90
36450;DHT22;22475;51.390;7.180;2023-02-28T01:54:14;9.20;79.90
36450;DHT22;22475;51.390;7.180;2023-02-28T01:56:44;9.20;79.80
36450;DHT22;22475;51.390;7.180;2023-02-28T01:59:15;9.10;79.70
36450;DHT22;22475;51.390;7.180;2023-02-28T02:01:45;9.10;79.70
36450;DHT22;22475;51.390;7.180;2023-02-28T02:04:12;9.10;79.70
36450;DHT22;22475;51.390;7.180;2023-02-28T02:06:43;9.10;79.70
36450;DHT22;22475;51.390;7.180;2023-02-28T02:09:10;9.20;79.70
36450;DHT22;22475;51.390;7.180;2023-02-28T02:11:39;9.10;79.70
36450;DHT22;22475;51.390;7.180;2023-02-28T02:14:27;9.10;79.70
36450;DHT22;22475;51.390;7.180;2023-02-28T02:17:09;9.10;79.70
36450;DHT22;22475;51.390;7.180;2023-02-28T02:20:11;9.10;79.60
36450;DHT22;22475;51.390;7.180;2023-02-28T02:23:14;9.10;79.60
36450;DHT22;22475;51.390;7.180;2023-02-28T02:25:50;9.10;79.60
36450;DHT22;22475;51.390;7.180;2023-02-28T02:28:34;9.10;79.60
36450;DHT22;22475;51.390;7.180;2023-02-28T02:31:29;9.10;79.60
36450;DHT22;22475;51.390;7.180;2023-02-28T02:34:21;9.10;79.60
36450;DHT22;22475;51.390;7.180;2023-02-28T02:36:53;9.10;79.60
36450;DHT22;22475;51.390;7.180;2023-02-28T02:39:30;9.10;80.40
36450;DHT22;22475;51.390;7.180;2023-02-28T02:42:01;9.00;79.50
36450;DHT22;22475;51.390;7.180;2023-02-28T02:44:33;9.10;79.50
36450;DHT22;22475;51.390;7.180;2023-02-28T02:47:07;9.00;79.50
36450;DHT22;22475;51.390;7.180;2023-02-28T02:49:38;9.00;79.40
36450;DHT22;22475;51.390;7.180;2023-02-28T02:52:09;9.00;79.40
36450;DHT22;22475;51.390;7.180;2023-02-28T02:54:39;9.00;80.20
36450;DHT22;22475;51.390;7.180;2023-02-28T02:57:09;9.00;79.40
36450;DHT22;22475;51.390;7.180;2023-02-28T02:59:39;9.00;79.40
36450;DHT22;22475;51.390;7.180;2023-02-28T03:02:08;9.00;79.30
36450;DHT22;22475;51.390;7.180;2023-02-28T03:04:42;9.00;79.30
36450;DHT22;22475;51.390;7.180;2023-02-28T03:07:10;9.00;79.30
36450;DHT22;22475;51.390;7.180;2023-02-28T03:09:36;9.00;79.40
36450;DHT22;22475;51.390;7.180;2023-02-28T03:12:08;9.00;79.40
36450;DHT22;22475;51.390;7.180;2023-02-28T03:14:42;9.00;79.30
36450;DHT22;22475;51.390;7.180;2023-02-28T03:20:07;9.00;79.30
36450;DHT22;22475;51.390;7.180;2023-02-28T03:22:47;9.00;79.30
36450;DHT22;22475;51.390;7.180;2023-02-28T03:25:21;9.00;79.30
36450;DHT22;22475;51.390;7.180;2023-02-28T03:28:00;8.90;79.30
36450;DHT22;22475;51.390;7.180;2023-02-28T03:30:35;9.00;79.50
36450;DHT22;22475;51.390;7.180;2023-02-28T03:33:06;9.00;79.50
36450;DHT22;22475;51.390;7.180;2023-02-28T03:35:38;9.00;79.50
36450;DHT22;22475;51.390;7.180;2023-02-28T03:38:11;9.00;79.50
36450;DHT22;22475;51.390;7.180;2023-02-28T03:40:41;9.00;79.50
36450;DHT22;22475;51.390;7.180;2023-02-28T03:43:12;9.00;80.30
36450;DHT22;22475;51.390;7.180;2023-02-28T03:45:40;9.00;79.40
36450;DHT22;22475;51.390;7.180;2023-02-28T03:48:12;8.90;79.40
36450;DHT22;22475;51.390;7.180;2023-02-28T03:50:43;9.00;79.40
36450;DHT22;22475;51.390;7.180;2023-02-28T03:53:13;9.00;79.20
36450;DHT22;22475;51.390;7.180;2023-02-28T03:55:44;8.90;79.20
36450;DHT22;22475;51.390;7.180;2023-02-28T03:58:16;8.90;79.20
36450;DHT22;22475;51.390;7.180;2023-02-28T04:00:49;8.90;79.10
36450;DHT22;22475;51.390;7.180;2023-02-28T04:03:17;8.90;79.20
36450;DHT22;22475;51.390;7.180;2023-02-28T04:05:51;8.90;79.30
36450;DHT22;22475;51.390;7.180;2023-02-28T04:08:19;8.90;79.10
36450;DHT22;22475;51.390;7.180;2023-02-28T04:10:54;8.90;79.00
36450;DHT22;22475;51.390;7.180;2023-02-28T04:13:22;8.90;79.10
36450;DHT22;22475;51.390;7.180;2023-02-28T04:15:48;8.90;79.10
36450;DHT22;22475;51.390;7.180;2023-02-28T04:18:15;8.90;79.10
36450;DHT22;22475;51.390;7.180;2023-02-28T04:20:42;8.90;79.00
36450;DHT22;22475;51.390;7.180;2023-02-28T04:23:10;8.80;78.90
36450;DHT22;22475;51.390;7.180;2023-02-28T04:25:37;8.80;78.90
36450;DHT22;22475;51.390;7.180;2023-02-28T04:28:05;8.80;78.90
36450;DHT22;22475;51.390;7.180;2023-02-28T04:30:32;8.80;79.70
36450;DHT22;22475;51.390;7.180;2023-02-28T04:33:00;8.80;78.90
36450;DHT22;22475;51.390;7.180;2023-02-28T04:35:27;8.80;78.90
36450;DHT22;22475;51.390;7.180;2023-02-28T04:37:53;8.80;78.90
36450;DHT22;22475;51.390;7.180;2023-02-28T04:40:21;8.80;78.90
36450;DHT22;22475;51.390;7.180;2023-02-28T04:42:48;8.80;78.90
36450;DHT22;22475;51.390;7.180;2023-02-28T04:45:15;8.80;78.90
36450;DHT22;22475;51.390;7.180;2023-02-28T04:47:42;8.80;78.90
36450;DHT22;22475;51.390;7.180;2023-02-28T04:50:10;8.80;78.90
36450;DHT22;22475;51.390;7.180;2023-02-28T04:52:36;8.80;79.00
36450;DHT22;22475;51.390;7.180;2023-02-28T04:55:04;8.80;79.00
36450;DHT22;22475;51.390;7.180;2023-02-28T04:57:32;8.80;78.90
36450;DHT22;22475;51.390;7.180;2023-02-28T04:59:59;8.80;78.90
36450;DHT22;22475;51.390;7.180;2023-02-28T05:02:26;8.80;78.90
36450;DHT22;22475;51.390;7.180;2023-02-28T05:04:52;8.80;78.90
36450;DHT22;22475;51.390;7.180;2023-02-28T05:07:19;8.80;78.80
36450;DHT22;22475;51.390;7.180;2023-02-28T05:09:46;8.80;78.70
36450;DHT22;22475;51.390;7.180;2023-02-28T05:12:13;8.80;78.60
36450;DHT22;22475;51.390;7.180;2023-02-28T05:14:41;8.80;78.60
36450;DHT22;22475;51.390;7.180;2023-02-28T05:17:08;8.80;78.60
36450;DHT22;22475;51.390;7.180;2023-02-28T05:19:35;8.80;78.60
36450;DHT22;22475;51.390;7.180;2023-02-28T05:22:02;8.80;78.50
36450;DHT22;22475;51.390;7.180;2023-02-28T05:24:29;8.70;78.30
36450;DHT22;22475;51.390;7.180;2023-02-28T05:26:56;8.70;78.40
36450;DHT22;22475;51.390;7.180;2023-02-28T05:29:23;8.70;78.50
36450;DHT22;22475;51.390;7.180;2023-02-28T05:31:51;8.70;78.50
36450;DHT22;22475;51.390;7.180;2023-02-28T05:34:18;8.70;78.50
36450;DHT22;22475;51.390;7.180;2023-02-28T05:36:44;8.70;78.50
36450;DHT22;22475;51.390;7.180;2023-02-28T05:39:11;8.70;78.40
36450;DHT22;22475;51.390;7.180;2023-02-28T05:41:42;8.70;78.40
36450;DHT22;22475;51.390;7.180;2023-02-28T05:44:09;8.70;78.30
36450;DHT22;22475;51.390;7.180;2023-02-28T05:46:36;8.70;78.40
36450;DHT22;22475;51.390;7.180;2023-02-28T05:49:05;8.70;78.30
36450;DHT22;22475;51.390;7.180;2023-02-28T05:51:31;8.70;78.30
36450;DHT22;22475;51.390;7.180;2023-02-28T05:54:00;8.70;78.30
36450;DHT22;22475;51.390;7.180;2023-02-28T05:56:27;8.70;78.20
36450;DHT22;22475;51.390;7.180;2023-02-28T05:58:54;8.70;78.20
36450;DHT22;22475;51.390;7.180;2023-02-28T06:01:24;8.70;78.20
36450;DHT22;22475;51.390;7.180;2023-02-28T06:03:51;8.70;78.20
36450;DHT22;22475;51.390;7.180;2023-02-28T06:06:19;8.70;78.20
36450;DHT22;22475;51.390;7.180;2023-02-28T06:08:46;8.70;78.20
36450;DHT22;22475;51.390;7.180;2023-02-28T06:11:13;8.70;78.20
36450;DHT22;22475;51.390;7.180;2023-02-28T06:13:40;8.60;78.10
36450;DHT22;22475;51.390;7.180;2023-02-28T06:16:08;8.60;78.10
36450;DHT22;22475;51.390;7.180;2023-02-28T06:18:36;8.60;78.10
36450;DHT22;22475;51.390;7.180;2023-02-28T06:21:03;8.60;78.10
36450;DHT22;22475;51.390;7.180;2023-02-28T06:23:32;8.60;78.10
36450;DHT22;22475;51.390;7.180;2023-02-28T06:25:58;8.60;78.00
36450;DHT22;22475;51.390;7.180;2023-02-28T06:28:25;8.70;78.00
36450;DHT22;22475;51.390;7.180;2023-02-28T06:30:52;8.60;78.00
36450;DHT22;22475;51.390;7.180;2023-02-28T06:33:19;8.60;78.10
36450;DHT22;22475;51.390;7.180;2023-02-28T06:35:47;8.60;78.00
36450;DHT22;22475;51.390;7.180;2023-02-28T06:38:13;8.60;78.00
36450;DHT22;22475;51.390;7.180;2023-02-28T06:40:41;8.60;78.00
36450;DHT22;22475;51.390;7.180;2023-02-28T06:43:09;8.60;78.10
36450;DHT22;22475;51.390;7.180;2023-02-28T06:45:41;8.60;78.20
36450;DHT22;22475;51.390;7.180;2023-02-28T06:48:08;8.60;78.10
36450;DHT22;22475;51.390;7.180;2023-02-28T06:50:35;8.60;78.10
36450;DHT22;22475;51.390;7.180;2023-02-28T06:53:02;8.60;78.10
36450;DHT22;22475;51.390;7.180;2023-02-28T06:55:29;8.60;78.10
36450;DHT22;22475;51.390;7.180;2023-02-28T06:57:57;8.60;78.10
36450;DHT22;22475;51.390;7.180;2023-02-28T07:00:24;8.60;78.10
36450;DHT22;22475;51.390;7.180;2023-02-28T07:02:51;8.60;78.00
36450;DHT22;22475;51.390;7.180;2023-02-28T07:05:19;8.60;78.10
36450;DHT22;22475;51.390;7.180;2023-02-28T07:07:46;8.60;78.30
36450;DHT22;22475;51.390;7.180;2023-02-28T07:10:13;8.60;78.10
36450;DHT22;22475;51.390;7.180;2023-02-28T07:12:42;8.60;78.10
36450;DHT22;22475;51.390;7.180;2023-02-28T07:15:10;8.60;78.10
36450;DHT22;22475;51.390;7.180;2023-02-28T07:17:38;8.60;78.10
36450;DHT22;22475;51.390;7.180;2023-02-28T07:20:05;8.60;78.10
36450;DHT22;22475;51.390;7.180;2023-02-28T07:22:32;8.60;78.10
36450;DHT22;22475;51.390;7.180;2023-02-28T07:24:59;8.60;78.10
36450;DHT22;22475;51.390;7.180;2023-02-28T07:27:25;8.60;78.10
36450;DHT22;22475;51.390;7.180;2023-02-28T07:29:53;8.60;78.10
36450;DHT22;22475;51.390;7.180;2023-02-28T07:32:21;8.60;78.10
36450;DHT22;22475;51.390;7.180;2023-02-28T07:34:48;8.60;78.10
36450;DHT22;22475;51.390;7.180;2023-02-28T07:37:15;8.60;78.90
36450;DHT22;22475;51.390;7.180;2023-02-28T07:39:42;8.60;78.20
36450;DHT22;22475;51.390;7.180;2023-02-28T07:42:08;8.60;78.10
36450;DHT22;22475;51.390;7.180;2023-02-28T07:44:35;8.60;78.50
36450;DHT22;22475;51.390;7.180;2023-02-28T07:47:06;8.60;78.70
36450;DHT22;22475;51.390;7.180;2023-02-28T07:49:34;8.70;78.70
36450;DHT22;22475;51.390;7.180;2023-02-28T07:52:01;8.70;78.60
36450;DHT22;22475;51.390;7.180;2023-02-28T07:54:28;8.70;78.50
36450;DHT22;22475;51.390;7.180;2023-02-28T07:56:55;8.70;78.50
36450;DHT22;22475;51.390;7.180;2023-02-28T07:59:21;8.70;78.50
36450;DHT22;22475;51.390;7.180;2023-02-28T08:01:48;8.70;78.60
36450;DHT22;22475;51.390;7.180;2023-02-28T08:04:15;8.70;78.60
36450;DHT22;22475;51.390;7.180;2023-02-28T08:06:44;8.70;78.70
36450;DHT22;22475;51.390;7.180;2023-02-28T08:09:11;8.70;78.70
36450;DHT22;22475;51.390;7.180;2023-02-28T08:11:37;8.70;78.80
36450;DHT22;22475;51.390;7.180;2023-02-28T08:14:06;8.70;78.90
36450;DHT22;22475;51.390;7.180;2023-02-28T08:16:33;8.80;79.00
36450;DHT22;22475;51.390;7.180;2023-02-28T08:19:00;8.80;79.10
36450;DHT22;22475;51.390;7.180;2023-02-28T08:21:27;8.80;79.20
36450;DHT22;22475;51.390;7.180;2023-02-28T08:23:55;8.80;79.40
36450;DHT22;22475;51.390;7.180;2023-02-28T08:26:22;8.80;79.40
36450;DHT22;22475;51.390;7.180;2023-02-28T08:28:49;8.80;79.50
36450;DHT22;22475;51.390;7.180;2023-02-28T08:31:17;8.80;79.60
36450;DHT22;22475;51.390;7.180;2023-02-28T08:33:44;8.90;79.80
36450;DHT22;22475;51.390;7.180;2023-02-28T08:36:14;8.90;79.90
36450;DHT22;22475;51.390;7.180;2023-02-28T08:38:41;8.90;79.90
36450;DHT22;22475;51.390;7.180;2023-02-28T08:41:11;8.90;79.80
36450;DHT22;22475;51.390;7.180;2023-02-28T08:43:39;8.90;79.70
36450;DHT22;22475;51.390;7.180;2023-02-28T08:46:06;8.90;79.60
36450;DHT22;22475;51.390;7.180;2023-02-28T08:48:34;8.90;79.40
36450;DHT22;22475;51.390;7.180;2023-02-28T08:51:05;8.90;79.40
36450;DHT22;22475;51.390;7.180;2023-02-28T08:53:32;8.90;79.40
36450;DHT22;22475;51.390;7.180;2023-02-28T08:56:01;8.90;79.60
36450;DHT22;22475;51.390;7.180;2023-02-28T08:58:29;9.00;79.60
36450;DHT22;22475;51.390;7.180;2023-02-28T09:00:56;8.90;79.50
36450;DHT22;22475;51.390;7.180;2023-02-28T09:03:23;8.90;79.30
36450;DHT22;22475;51.390;7.180;2023-02-28T09:05:55;9.00;79.20
36450;DHT22;22475;51.390;7.180;2023-02-28T09:08:22;8.90;79.00
36450;DHT22;22475;51.390;7.180;2023-02-28T09:10:49;8.90;78.70
36450;DHT22;22475;51.390;7.180;2023-02-28T09:13:16;8.90;78.50
36450;DHT22;22475;51.390;7.180;2023-02-28T09:15:44;8.90;78.30
36450;DHT22;22475;51.390;7.180;2023-02-28T09:18:12;8.80;78.20
36450;DHT22;22475;51.390;7.180;2023-02-28T09:20:39;8.80;78.20
36450;DHT22;22475;51.390;7.180;2023-02-28T09:23:06;8.80;79.00
36450;DHT22;22475;51.390;7.180;2023-02-28T09:25:34;8.80;78.20
36450;DHT22;22475;51.390;7.180;2023-02-28T09:28:01;8.80;78.10
36450;DHT22;22475;51.390;7.180;2023-02-28T09:30:28;8.90;79.10
36450;DHT22;22475;51.390;7.180;2023-02-28T09:32:56;8.80;78.20
36450;DHT22;22475;51.390;7.180;2023-02-28T09:35:24;8.80;78.30
36450;DHT22;22475;51.390;7.180;2023-02-28T09:37:52;8.90;78.60
36450;DHT22;22475;51.390;7.180;2023-02-28T09:40:20;8.90;78.70
36450;DHT22;22475;51.390;7.180;2023-02-28T09:42:48;8.90;78.70
36450;DHT22;22475;51.390;7.180;2023-02-28T09:45:22;8.90;78.60
36450;DHT22;22475;51.390;7.180;2023-02-28T09:47:50;8.90;78.50
36450;DHT22;22475;51.390;7.180;2023-02-28T09:50:28;8.90;78.50
36450;DHT22;22475;51.390;7.180;2023-02-28T09:52:56;8.90;78.60
36450;DHT22;22475;51.390;7.180;2023-02-28T09:55:29;8.90;78.70
36450;DHT22;22475;51.390;7.180;2023-02-28T09:57:57;9.00;78.90
36450;DHT22;22475;51.390;7.180;2023-02-28T10:00:30;9.00;78.90
36450;DHT22;22475;51.390;7.180;2023-02-28T10:05:52;9.00;78.70
36450;DHT22;22475;51.390;7.180;2023-02-28T10:08:23;9.00;78.60
36450;DHT22;22475;51.390;7.180;2023-02-28T10:10:54;9.00;78.50
36450;DHT22;22475;51.390;7.180;2023-02-28T10:13:26;9.00;78.70
36450;DHT22;22475;51.390;7.180;2023-02-28T10:15:56;9.00;78.80
36450;DHT22;22475;51.390;7.180;2023-02-28T10:18:33;8.90;78.80
36450;DHT22;22475;51.390;7.180;2023-02-28T10:21:04;9.00;78.70
36450;DHT22;22475;51.390;7.180;2023-02-28T10:23:34;9.00;78.60
36450;DHT22;22475;51.390;7.180;2023-02-28T10:26:12;9.00;78.40
36450;DHT22;22475;51.390;7.180;2023-02-28T10:28:39;9.00;78.40
36450;DHT22;22475;51.390;7.180;2023-02-28T10:31:09;8.90;78.30
36450;DHT22;22475;51.390;7.180;2023-02-28T10:33:38;9.00;78.20
36450;DHT22;22475;51.390;7.180;2023-02-28T10:36:12;9.00;78.00
36450;DHT22;22475;51.390;7.180;2023-02-28T10:38:40;9.00;77.80
36450;DHT22;22475;51.390;7.180;2023-02-28T10:41:08;9.00;77.80
36450;DHT22;22475;51.390;7.180;2023-02-28T10:43:36;9.00;77.80
36450;DHT22;22475;51.390;7.180;2023-02-28T10:46:05;9.00;77.60
36450;DHT22;22475;51.390;7.180;2023-02-28T10:48:41;9.00;77.60
36450;DHT22;22475;51.390;7.180;2023-02-28T10:51:12;9.00;77.60
36450;DHT22;22475;51.390;7.180;2023-02-28T10:53:47;9.00;77.90
36450;DHT22;22475;51.390;7.180;2023-02-28T10:56:17;9.00;78.00
36450;DHT22;22475;51.390;7.180;2023-02-28T10:58:50;9.00;78.20
36450;DHT22;22475;51.390;7.180;2023-02-28T11:01:19;9.00;78.00
36450;DHT22;22475;51.390;7.180;2023-02-28T11:03:47;9.00;77.90
36450;DHT22;22475;51.390;7.180;2023-02-28T11:06:18;9.00;78.10
36450;DHT22;22475;51.390;7.180;2023-02-28T11:08:48;9.00;78.20
36450;DHT22;22475;51.390;7.180;2023-02-28T11:11:15;9.10;78.40
36450;DHT22;22475;51.390;7.180;2023-02-28T11:13:45;9.10;79.20
36450;DHT22;22475;51.390;7.180;2023-02-28T11:16:13;9.10;78.40
36450;DHT22;22475;51.390;7.180;2023-02-28T11:18:43;9.10;78.40
36450;DHT22;22475;51.390;7.180;2023-02-28T11:21:19;9.10;78.30
36450;DHT22;22475;51.390;7.180;2023-02-28T11:23:48;9.10;77.90
36450;DHT22;22475;51.390;7.180;2023-02-28T11:26:16;9.10;77.80
36450;DHT22;22475;51.390;7.180;2023-02-28T11:29:09;9.10;77.60
36450;DHT22;22475;51.390;7.180;2023-02-28T11:31:37;9.10;77.30
36450;DHT22;22475;51.390;7.180;2023-02-28T11:34:23;9.10;77.10
36450;DHT22;22475;51.390;7.180;2023-02-28T11:36:53;9.10;76.70
36450;DHT22;22475;51.390;7.180;2023-02-28T11:39:20;9.10;76.70
36450;DHT22;22475;51.390;7.180;2023-02-28T11:42:00;9.10;76.70
36450;DHT22;22475;51.390;7.180;2023-02-28T11:44:38;9.10;76.80
36450;DHT22;22475;51.390;7.180;2023-02-28T11:47:12;9.10;76.90
36450;DHT22;22475;51.390;7.180;2023-02-28T11:49:47;9.10;77.20
36450;DHT22;22475;51.390;7.180;2023-02-28T11:52:29;9.20;77.30
36450;DHT22;22475;51.390;7.180;2023-02-28T11:55:08;9.10;77.10
36450;DHT22;22475;51.390;7.180;2023-02-28T11:57:44;9.10;77.00
36450;DHT22;22475;51.390;7.180;2023-02-28T12:03:17;9.10;76.60
36450;DHT22;22475;51.390;7.180;2023-02-28T12:05:47;9.10;76.60
36450;DHT22;22475;51.390;7.180;2023-02-28T12:08:26;9.10;76.70
36450;DHT22;22475;51.390;7.180;2023-02-28T12:11:03;9.10;76.90
36450;DHT22;22475;51.390;7.180;2023-02-28T12:13:42;9.10;76.80
36450;DHT22;22475;51.390;7.180;2023-02-28T12:16:37;9.20;76.60
36450;DHT22;22475;51.390;7.180;2023-02-28T12:19:16;9.20;76.40
36450;DHT22;22475;51.390;7.180;2023-02-28T12:24:54;9.20;76.20
36450;DHT22;22475;51.390;7.180;2023-02-28T12:27:24;9.20;76.30
36450;DHT22;22475;51.390;7.180;2023-02-28T12:29:55;9.20;76.20
36450;DHT22;22475;51.390;7.180;2023-02-28T12:32:26;9.20;76.30
36450;DHT22;22475;51.390;7.180;2023-02-28T12:34:57;9.20;76.50
36450;DHT22;22475;51.390;7.180;2023-02-28T12:37:27;9.20;76.70
36450;DHT22;22475;51.390;7.180;2023-02-28T12:40:02;9.20;76.70
36450;DHT22;22475;51.390;7.180;2023-02-28T12:42:33;9.20;76.50
36450;DHT22;22475;51.390;7.180;2023-02-28T12:45:09;9.20;76.70
36450;DHT22;22475;51.390;7.180;2023-02-28T12:47:38;9.20;76.70
36450;DHT22;22475;51.390;7.180;2023-02-28T12:50:09;9.20;76.70
36450;DHT22;22475;51.390;7.180;2023-02-28T12:52:41;9.20;76.70
36450;DHT22;22475;51.390;7.180;2023-02-28T12:55:17;9.20;76.70
36450;DHT22;22475;51.390;7.180;2023-02-28T12:57:52;9.20;76.70
36450;DHT22;22475;51.390;7.180;2023-02-28T13:00:25;9.20;76.90
36450;DHT22;22475;51.390;7.180;2023-02-28T13:03:16;9.30;77.30
36450;DHT22;22475;51.390;7.180;2023-02-28T13:09:02;9.30;76.90
36450;DHT22;22475;51.390;7.180;2023-02-28T13:11:33;9.30;76.80
36450;DHT22;22475;51.390;7.180;2023-02-28T13:14:06;9.30;76.60
36450;DHT22;22475;51.390;7.180;2023-02-28T13:16:58;9.30;76.50
36450;DHT22;22475;51.390;7.180;2023-02-28T13:19:27;9.30;76.40
36450;DHT22;22475;51.390;7.180;2023-02-28T13:21:55;9.20;76.20
36450;DHT22;22475;51.390;7.180;2023-02-28T13:24:42;9.30;76.30
36450;DHT22;22475;51.390;7.180;2023-02-28T13:27:34;9.30;76.20
36450;DHT22;22475;51.390;7.180;2023-02-28T13:30:02;9.30;76.40
36450;DHT22;22475;51.390;7.180;2023-02-28T13:33:25;9.30;76.50
36450;DHT22;22475;51.390;7.180;2023-02-28T13:36:09;9.30;76.80
36450;DHT22;22475;51.390;7.180;2023-02-28T13:38:39;9.40;77.10
36450;DHT22;22475;51.390;7.180;2023-02-28T13:41:40;9.30;77.00
36450;DHT22;22475;51.390;7.180;2023-02-28T13:44:08;9.40;77.00
36450;DHT22;22475;51.390;7.180;2023-02-28T13:47:15;9.40;77.00
36450;DHT22;22475;51.390;7.180;2023-02-28T13:49:37;9.40;77.00
36450;DHT22;22475;51.390;7.180;2023-02-28T13:52:12;9.40;77.10
36450;DHT22;22475;51.390;7.180;2023-02-28T13:54:55;9.40;77.30
36450;DHT22;22475;51.390;7.180;2023-02-28T13:57:31;9.40;77.40
36450;DHT22;22475;51.390;7.180;2023-02-28T14:00:13;9.40;77.60
36450;DHT22;22475;51.390;7.180;2023-02-28T14:03:18;9.40;77.50
36450;DHT22;22475;51.390;7.180;2023-02-28T14:06:09;9.40;77.20
36450;DHT22;22475;51.390;7.180;2023-02-28T14:08:47;9.40;77.20
36450;DHT22;22475;51.390;7.180;2023-02-28T14:11:26;9.40;77.10
36450;DHT22;22475;51.390;7.180;2023-02-28T14:13:54;9.40;76.80
36450;DHT22;22475;51.390;7.180;2023-02-28T14:16:22;9.40;76.80
36450;DHT22;22475;51.390;7.180;2023-02-28T14:18:51;9.40;76.70
36450;DHT22;22475;51.390;7.180;2023-02-28T14:21:24;9.40;76.60
36450;DHT22;22475;51.390;7.180;2023-02-28T14:27:12;9.40;77.10
36450;DHT22;22475;51.390;7.180;2023-02-28T14:32:47;9.50;77.20
36450;DHT22;22475;51.390;7.180;2023-02-28T14:35:29;9.40;77.10
36450;DHT22;22475;51.390;7.180;2023-02-28T14:38:05;9.40;77.00
36450;DHT22;22475;51.390;7.180;2023-02-28T14:40:33;9.50;77.00
36450;DHT22;22475;51.390;7.180;2023-02-28T14:43:01;9.50;77.00
36450;DHT22;22475;51.390;7.180;2023-02-28T14:45:30;9.50;76.90
36450;DHT22;22475;51.390;7.180;2023-02-28T14:47:58;9.50;76.70
36450;DHT22;22475;51.390;7.180;2023-02-28T14:50:28;9.50;76.70
36450;DHT22;22475;51.390;7.180;2023-02-28T14:52:56;9.40;76.70
36450;DHT22;22475;51.390;7.180;2023-02-28T14:55:28;9.50;76.80
36450;DHT22;22475;51.390;7.180;2023-02-28T14:57:55;9.50;76.70
36450;DHT22;22475;51.390;7.180;2023-02-28T15:00:24;9.50;76.60
36450;DHT22;22475;51.390;7.180;2023-02-28T15:02:52;9.50;76.60
36450;DHT22;22475;51.390;7.180;2023-02-28T15:05:24;9.50;76.60
36450;DHT22;22475;51.390;7.180;2023-02-28T15:08:02;9.50;76.80
36450;DHT22;22475;51.390;7.180;2023-02-28T15:10:31;9.50;76.90
36450;DHT22;22475;51.390;7.180;2023-02-28T15:13:00;9.50;76.90
36450;DHT22;22475;51.390;7.180;2023-02-28T15:15:38;9.50;77.00
36450;DHT22;22475;51.390;7.180;2023-02-28T15:18:07;9.50;77.10
36450;DHT22;22475;51.390;7.180;2023-02-28T15:20:35;9.50;76.90
36450;DHT22;22475;51.390;7.180;2023-02-28T15:23:05;9.50;76.90
36450;DHT22;22475;51.390;7.180;2023-02-28T15:25:34;9.50;76.80
36450;DHT22;22475;51.390;7.180;2023-02-28T15:28:01;9.50;76.70
36450;DHT22;22475;51.390;7.180;2023-02-28T15:30:29;9.50;77.10
36450;DHT22;22475;51.390;7.180;2023-02-28T15:33:18;9.50;77.10
36450;DHT22;22475;51.390;7.180;2023-02-28T15:35:45;9.50;77.20
36450;DHT22;22475;51.390;7.180;2023-02-28T15:38:16;9.40;77.30
36450;DHT22;22475;51.390;7.180;2023-02-28T15:40:49;9.50;77.30
36450;DHT22;22475;51.390;7.180;2023-02-28T15:43:24;9.50;77.10
36450;DHT22;22475;51.390;7.180;2023-02-28T15:45:52;9.50;77.20
36450;DHT22;22475;51.390;7.180;2023-02-28T15:48:21;9.50;77.20
36450;DHT22;22475;51.390;7.180;2023-02-28T15:50:50;9.50;77.30
36450;DHT22;22475;51.390;7.180;2023-02-28T15:53:20;9.50;77.40
36450;DHT22;22475;51.390;7.180;2023-02-28T15:55:55;9.50;77.40
36450;DHT22;22475;51.390;7.180;2023-02-28T15:58:24;9.50;77.20
36450;DHT22;22475;51.390;7.180;2023-02-28T16:01:05;9.50;77.30
36450;DHT22;22475;51.390;7.180;2023-02-28T16:03:42;9.50;77.60
36450;DHT22;22475;51.390;7.180;2023-02-28T16:06:38;9.40;77.50
36450;DHT22;22475;51.390;7.180;2023-02-28T16:09:10;9.50;77.40
36450;DHT22;22475;51.390;7.180;2023-02-28T16:11:43;9.50;77.20
36450;DHT22;22475;51.390;7.180;2023-02-28T16:14:16;9.40;77.10
36450;DHT22;22475;51.390;7.180;2023-02-28T16:16:45;9.40;76.80
36450;DHT22;22475;51.390;7.180;2023-02-28T16:19:13;9.40;76.80
36450;DHT22;22475;51.390;7.180;2023-02-28T16:21:40;9.40;76.80
36450;DHT22;22475;51.390;7.180;2023-02-28T16:24:07;9.50;77.00
36450;DHT22;22475;51.390;7.180;2023-02-28T16:26:34;9.40;77.10
36450;DHT22;22475;51.390;7.180;2023-02-28T16:29:04;9.40;77.10